Grovespring, Missouri
Current Conditions -  °F | °C
As of 5:58 AM on Thursday 29 Jan 2015 (Local Time) from KTBN Reporting Station
Broken Clouds Broken Clouds  
Wind Chill: 40°   Ceiling: 2400
Heat Index: 46°   Visibility: 10mi
Dew Point: 39°   Wind: 14mph
Humidity: 75%   Direction: 300°WNW
Pressure: 29.99"   Gusts: 23mph
Location:  37.4°N, 92.61°W
Report Text: KTBN 291158Z AUTO 30012G20KT 10SM BKN024 08/04 A2999 RMK AO2 PK WND 32026/19 BKN V SCT PRESRR SLP159 T00780037 10124 20078 52043
Loading
Personal Weather Stations






























Interactive Weather Map New forecast layout! Learn more

10-Day Weather Forecast

Advertisements
Track Severe Weather on mobile